sensor_id;sensor_type;location;lat;lon;timestamp;P1;durP1;ratioP1;P2;durP2;ratioP2
66212;SDS011;53015;50.046;8.238;2023-06-14T00:01:36;2.05;;;1.88;;
66212;SDS011;53015;50.046;8.238;2023-06-14T00:04:02;3.08;;;2.10;;
66212;SDS011;53015;50.046;8.238;2023-06-14T00:06:29;2.45;;;2.05;;
66212;SDS011;53015;50.046;8.238;2023-06-14T00:08:55;4.80;;;2.45;;
66212;SDS011;53015;50.046;8.238;2023-06-14T00:11:20;3.38;;;2.38;;
66212;SDS011;53015;50.046;8.238;2023-06-14T00:13:46;4.90;;;2.58;;
66212;SDS011;53015;50.046;8.238;2023-06-14T00:16:11;2.50;;;1.98;;
66212;SDS011;53015;50.046;8.238;2023-06-14T00:18:37;3.22;;;2.30;;
66212;SDS011;53015;50.046;8.238;2023-06-14T00:21:03;3.38;;;2.28;;
66212;SDS011;53015;50.046;8.238;2023-06-14T00:23:30;3.90;;;2.42;;
66212;SDS011;53015;50.046;8.238;2023-06-14T00:25:57;2.78;;;2.17;;
66212;SDS011;53015;50.046;8.238;2023-06-14T00:28:22;5.35;;;4.05;;
66212;SDS011;53015;50.046;8.238;2023-06-14T00:30:47;3.08;;;2.10;;
66212;SDS011;53015;50.046;8.238;2023-06-14T00:33:13;3.65;;;2.50;;
66212;SDS011;53015;50.046;8.238;2023-06-14T00:35:39;3.33;;;2.30;;
66212;SDS011;53015;50.046;8.238;2023-06-14T00:38:04;5.43;;;2.35;;
66212;SDS011;53015;50.046;8.238;2023-06-14T00:40:31;3.88;;;2.40;;
66212;SDS011;53015;50.046;8.238;2023-06-14T00:42:57;2.60;;;2.30;;
66212;SDS011;53015;50.046;8.238;2023-06-14T00:45:23;2.97;;;2.28;;
66212;SDS011;53015;50.046;8.238;2023-06-14T00:47:49;4.47;;;2.45;;
66212;SDS011;53015;50.046;8.238;2023-06-14T00:50:16;2.65;;;2.20;;
66212;SDS011;53015;50.046;8.238;2023-06-14T00:52:41;2.72;;;2.15;;
66212;SDS011;53015;50.046;8.238;2023-06-14T00:55:07;4.18;;;2.45;;
66212;SDS011;53015;50.046;8.238;2023-06-14T00:57:35;5.28;;;2.33;;
66212;SDS011;53015;50.046;8.238;2023-06-14T01:00:01;2.60;;;1.85;;
66212;SDS011;53015;50.046;8.238;2023-06-14T01:02:26;4.80;;;2.00;;
66212;SDS011;53015;50.046;8.238;2023-06-14T01:04:52;3.17;;;2.13;;
66212;SDS011;53015;50.046;8.238;2023-06-14T01:07:21;3.08;;;1.95;;
66212;SDS011;53015;50.046;8.238;2023-06-14T01:10:01;3.03;;;2.03;;
66212;SDS011;53015;50.046;8.238;2023-06-14T01:12:39;3.22;;;2.25;;
66212;SDS011;53015;50.046;8.238;2023-06-14T01:15:09;3.30;;;2.05;;
66212;SDS011;53015;50.046;8.238;2023-06-14T01:17:37;3.10;;;2.20;;
66212;SDS011;53015;50.046;8.238;2023-06-14T01:20:04;3.30;;;2.03;;
66212;SDS011;53015;50.046;8.238;2023-06-14T01:22:30;2.92;;;1.88;;
66212;SDS011;53015;50.046;8.238;2023-06-14T01:24:57;2.08;;;1.88;;
66212;SDS011;53015;50.046;8.238;2023-06-14T01:27:23;3.00;;;1.80;;
66212;SDS011;53015;50.046;8.238;2023-06-14T01:29:51;2.53;;;1.90;;
66212;SDS011;53015;50.046;8.238;2023-06-14T01:32:18;2.10;;;1.90;;
66212;SDS011;53015;50.046;8.238;2023-06-14T01:34:44;2.65;;;2.22;;
66212;SDS011;53015;50.046;8.238;2023-06-14T01:37:10;4.00;;;2.08;;
66212;SDS011;53015;50.046;8.238;2023-06-14T01:39:37;2.90;;;2.10;;
66212;SDS011;53015;50.046;8.238;2023-06-14T01:42:04;2.58;;;1.83;;
66212;SDS011;53015;50.046;8.238;2023-06-14T01:44:31;2.50;;;1.95;;
66212;SDS011;53015;50.046;8.238;2023-06-14T01:46:57;3.65;;;2.50;;
66212;SDS011;53015;50.046;8.238;2023-06-14T01:49:22;3.08;;;1.80;;
66212;SDS011;53015;50.046;8.238;2023-06-14T01:51:48;5.53;;;2.42;;
66212;SDS011;53015;50.046;8.238;2023-06-14T01:54:13;2.47;;;1.95;;
66212;SDS011;53015;50.046;8.238;2023-06-14T01:56:39;2.22;;;1.92;;
66212;SDS011;53015;50.046;8.238;2023-06-14T01:59:06;3.25;;;2.03;;
66212;SDS011;53015;50.046;8.238;2023-06-14T02:01:32;2.88;;;1.80;;
66212;SDS011;53015;50.046;8.238;2023-06-14T02:03:57;3.22;;;1.67;;
66212;SDS011;53015;50.046;8.238;2023-06-14T02:06:23;2.40;;;1.67;;
66212;SDS011;53015;50.046;8.238;2023-06-14T02:08:51;3.45;;;2.03;;
66212;SDS011;53015;50.046;8.238;2023-06-14T02:11:16;2.95;;;2.00;;
66212;SDS011;53015;50.046;8.238;2023-06-14T02:13:42;5.18;;;2.00;;
66212;SDS011;53015;50.046;8.238;2023-06-14T02:16:09;3.55;;;1.95;;
66212;SDS011;53015;50.046;8.238;2023-06-14T02:18:35;2.47;;;2.10;;
66212;SDS011;53015;50.046;8.238;2023-06-14T02:21:01;5.20;;;1.83;;
66212;SDS011;53015;50.046;8.238;2023-06-14T02:23:27;3.05;;;1.65;;
66212;SDS011;53015;50.046;8.238;2023-06-14T02:25:53;2.80;;;1.67;;
66212;SDS011;53015;50.046;8.238;2023-06-14T02:28:18;4.03;;;2.22;;
66212;SDS011;53015;50.046;8.238;2023-06-14T02:30:44;2.42;;;1.80;;
66212;SDS011;53015;50.046;8.238;2023-06-14T02:33:11;3.05;;;1.70;;
66212;SDS011;53015;50.046;8.238;2023-06-14T02:35:37;5.22;;;2.00;;
66212;SDS011;53015;50.046;8.238;2023-06-14T02:38:03;2.17;;;1.75;;
66212;SDS011;53015;50.046;8.238;2023-06-14T02:40:28;2.15;;;1.90;;
66212;SDS011;53015;50.046;8.238;2023-06-14T02:42:54;2.13;;;1.52;;
66212;SDS011;53015;50.046;8.238;2023-06-14T02:45:19;2.55;;;1.60;;
66212;SDS011;53015;50.046;8.238;2023-06-14T02:47:45;3.03;;;1.90;;
66212;SDS011;53015;50.046;8.238;2023-06-14T02:50:12;1.90;;;1.58;;
66212;SDS011;53015;50.046;8.238;2023-06-14T02:52:37;2.67;;;1.70;;
66212;SDS011;53015;50.046;8.238;2023-06-14T02:55:03;2.90;;;1.75;;
66212;SDS011;53015;50.046;8.238;2023-06-14T02:57:29;3.47;;;1.50;;
66212;SDS011;53015;50.046;8.238;2023-06-14T02:59:54;2.47;;;2.00;;
66212;SDS011;53015;50.046;8.238;2023-06-14T03:02:20;2.40;;;1.75;;
66212;SDS011;53015;50.046;8.238;2023-06-14T03:04:45;2.10;;;1.83;;
66212;SDS011;53015;50.046;8.238;2023-06-14T03:07:12;3.08;;;1.95;;
66212;SDS011;53015;50.046;8.238;2023-06-14T03:09:38;1.88;;;1.67;;
66212;SDS011;53015;50.046;8.238;2023-06-14T03:12:04;2.88;;;2.08;;
66212;SDS011;53015;50.046;8.238;2023-06-14T03:14:31;2.65;;;2.10;;
66212;SDS011;53015;50.046;8.238;2023-06-14T03:16:57;5.80;;;1.77;;
66212;SDS011;53015;50.046;8.238;2023-06-14T03:19:22;2.13;;;1.90;;
66212;SDS011;53015;50.046;8.238;2023-06-14T03:21:48;4.03;;;2.10;;
66212;SDS011;53015;50.046;8.238;2023-06-14T03:24:15;4.38;;;1.80;;
66212;SDS011;53015;50.046;8.238;2023-06-14T03:26:40;3.47;;;1.85;;
66212;SDS011;53015;50.046;8.238;2023-06-14T03:29:06;3.10;;;2.03;;
66212;SDS011;53015;50.046;8.238;2023-06-14T03:31:31;2.72;;;2.03;;
66212;SDS011;53015;50.046;8.238;2023-06-14T03:33:57;4.55;;;2.13;;
66212;SDS011;53015;50.046;8.238;2023-06-14T03:36:22;3.33;;;1.70;;
66212;SDS011;53015;50.046;8.238;2023-06-14T03:38:48;3.05;;;2.08;;
66212;SDS011;53015;50.046;8.238;2023-06-14T03:41:14;4.43;;;1.98;;
66212;SDS011;53015;50.046;8.238;2023-06-14T03:43:40;2.85;;;1.85;;
66212;SDS011;53015;50.046;8.238;2023-06-14T03:46:05;5.35;;;2.10;;
66212;SDS011;53015;50.046;8.238;2023-06-14T03:48:31;2.35;;;1.98;;
66212;SDS011;53015;50.046;8.238;2023-06-14T03:50:56;3.45;;;1.92;;
66212;SDS011;53015;50.046;8.238;2023-06-14T03:53:22;2.83;;;2.20;;
66212;SDS011;53015;50.046;8.238;2023-06-14T03:55:47;4.10;;;2.10;;
66212;SDS011;53015;50.046;8.238;2023-06-14T03:58:14;3.25;;;2.10;;
66212;SDS011;53015;50.046;8.238;2023-06-14T04:00:40;2.42;;;2.10;;
66212;SDS011;53015;50.046;8.238;2023-06-14T04:03:05;5.10;;;2.10;;
66212;SDS011;53015;50.046;8.238;2023-06-14T04:05:31;4.65;;;1.90;;
66212;SDS011;53015;50.046;8.238;2023-06-14T04:07:56;7.93;;;2.38;;
66212;SDS011;53015;50.046;8.238;2023-06-14T04:10:22;11.63;;;2.00;;
66212;SDS011;53015;50.046;8.238;2023-06-14T04:12:47;4.43;;;2.35;;
66212;SDS011;53015;50.046;8.238;2023-06-14T04:15:14;6.03;;;2.03;;
66212;SDS011;53015;50.046;8.238;2023-06-14T04:17:40;4.10;;;1.90;;
66212;SDS011;53015;50.046;8.238;2023-06-14T04:20:06;3.45;;;1.90;;
66212;SDS011;53015;50.046;8.238;2023-06-14T04:22:33;3.30;;;1.98;;
66212;SDS011;53015;50.046;8.238;2023-06-14T04:24:58;6.93;;;2.22;;
66212;SDS011;53015;50.046;8.238;2023-06-14T04:27:24;4.30;;;2.10;;
66212;SDS011;53015;50.046;8.238;2023-06-14T04:29:50;2.88;;;1.92;;
66212;SDS011;53015;50.046;8.238;2023-06-14T04:32:17;3.45;;;1.77;;
66212;SDS011;53015;50.046;8.238;2023-06-14T04:34:43;6.43;;;2.17;;
66212;SDS011;53015;50.046;8.238;2023-06-14T04:37:08;4.60;;;2.13;;
66212;SDS011;53015;50.046;8.238;2023-06-14T04:39:34;7.15;;;2.30;;
66212;SDS011;53015;50.046;8.238;2023-06-14T04:41:59;2.60;;;2.33;;
66212;SDS011;53015;50.046;8.238;2023-06-14T04:44:25;3.88;;;2.15;;
66212;SDS011;53015;50.046;8.238;2023-06-14T04:46:50;3.92;;;2.00;;
66212;SDS011;53015;50.046;8.238;2023-06-14T04:49:17;2.35;;;1.83;;
66212;SDS011;53015;50.046;8.238;2023-06-14T04:51:43;5.28;;;2.20;;
66212;SDS011;53015;50.046;8.238;2023-06-14T04:54:09;2.55;;;1.73;;
66212;SDS011;53015;50.046;8.238;2023-06-14T04:56:34;3.63;;;1.80;;
66212;SDS011;53015;50.046;8.238;2023-06-14T04:59:00;3.95;;;2.10;;
66212;SDS011;53015;50.046;8.238;2023-06-14T05:01:25;3.47;;;2.00;;
66212;SDS011;53015;50.046;8.238;2023-06-14T05:03:50;3.50;;;1.60;;
66212;SDS011;53015;50.046;8.238;2023-06-14T05:06:17;5.85;;;2.60;;
66212;SDS011;53015;50.046;8.238;2023-06-14T05:08:43;5.10;;;2.28;;
66212;SDS011;53015;50.046;8.238;2023-06-14T05:11:08;7.78;;;2.30;;
66212;SDS011;53015;50.046;8.238;2023-06-14T05:13:34;3.15;;;2.00;;
66212;SDS011;53015;50.046;8.238;2023-06-14T05:15:59;3.15;;;1.92;;
66212;SDS011;53015;50.046;8.238;2023-06-14T05:18:25;6.63;;;2.13;;
66212;SDS011;53015;50.046;8.238;2023-06-14T05:20:50;3.85;;;1.92;;
66212;SDS011;53015;50.046;8.238;2023-06-14T05:23:17;3.60;;;1.58;;
66212;SDS011;53015;50.046;8.238;2023-06-14T05:25:43;4.45;;;2.00;;
66212;SDS011;53015;50.046;8.238;2023-06-14T05:28:09;2.58;;;1.70;;
66212;SDS011;53015;50.046;8.238;2023-06-14T05:30:34;1.73;;;1.63;;
66212;SDS011;53015;50.046;8.238;2023-06-14T05:33:00;5.63;;;1.95;;
66212;SDS011;53015;50.046;8.238;2023-06-14T05:35:25;3.53;;;1.85;;
66212;SDS011;53015;50.046;8.238;2023-06-14T05:37:51;2.35;;;1.73;;
66212;SDS011;53015;50.046;8.238;2023-06-14T05:40:18;2.22;;;1.65;;
66212;SDS011;53015;50.046;8.238;2023-06-14T05:42:44;2.70;;;1.85;;
66212;SDS011;53015;50.046;8.238;2023-06-14T05:45:09;3.38;;;1.92;;
66212;SDS011;53015;50.046;8.238;2023-06-14T05:47:35;3.25;;;1.50;;
66212;SDS011;53015;50.046;8.238;2023-06-14T05:50:01;3.45;;;1.60;;
66212;SDS011;53015;50.046;8.238;2023-06-14T05:52:26;2.85;;;1.63;;
66212;SDS011;53015;50.046;8.238;2023-06-14T05:54:52;2.53;;;1.50;;
66212;SDS011;53015;50.046;8.238;2023-06-14T05:57:18;3.55;;;1.60;;
66212;SDS011;53015;50.046;8.238;2023-06-14T05:59:44;5.22;;;1.80;;
66212;SDS011;53015;50.046;8.238;2023-06-14T06:02:09;2.67;;;1.40;;
66212;SDS011;53015;50.046;8.238;2023-06-14T06:04:35;2.25;;;1.52;;
66212;SDS011;53015;50.046;8.238;2023-06-14T06:07:01;3.08;;;1.88;;
66212;SDS011;53015;50.046;8.238;2023-06-14T06:09:26;1.70;;;1.60;;
66212;SDS011;53015;50.046;8.238;2023-06-14T06:11:52;2.25;;;1.42;;
66212;SDS011;53015;50.046;8.238;2023-06-14T06:14:19;2.72;;;1.58;;
66212;SDS011;53015;50.046;8.238;2023-06-14T06:16:44;2.03;;;1.40;;
66212;SDS011;53015;50.046;8.238;2023-06-14T06:19:10;2.15;;;1.55;;
66212;SDS011;53015;50.046;8.238;2023-06-14T06:21:35;2.65;;;1.45;;
66212;SDS011;53015;50.046;8.238;2023-06-14T06:24:01;1.38;;;1.27;;
66212;SDS011;53015;50.046;8.238;2023-06-14T06:26:27;1.60;;;1.50;;
66212;SDS011;53015;50.046;8.238;2023-06-14T06:28:52;4.80;;;1.80;;
66212;SDS011;53015;50.046;8.238;2023-06-14T06:31:19;2.22;;;1.50;;
66212;SDS011;53015;50.046;8.238;2023-06-14T06:33:45;3.58;;;1.67;;
66212;SDS011;53015;50.046;8.238;2023-06-14T06:36:10;2.35;;;1.70;;
66212;SDS011;53015;50.046;8.238;2023-06-14T06:38:36;2.50;;;1.90;;
66212;SDS011;53015;50.046;8.238;2023-06-14T06:41:01;2.33;;;1.65;;
66212;SDS011;53015;50.046;8.238;2023-06-14T06:43:27;2.55;;;1.70;;
66212;SDS011;53015;50.046;8.238;2023-06-14T06:45:53;3.65;;;1.45;;
66212;SDS011;53015;50.046;8.238;2023-06-14T06:48:21;3.47;;;1.67;;
66212;SDS011;53015;50.046;8.238;2023-06-14T06:50:46;5.38;;;1.52;;
66212;SDS011;53015;50.046;8.238;2023-06-14T06:53:11;2.03;;;1.40;;
66212;SDS011;53015;50.046;8.238;2023-06-14T06:55:37;2.28;;;1.60;;
66212;SDS011;53015;50.046;8.238;2023-06-14T06:58:02;4.95;;;1.60;;
66212;SDS011;53015;50.046;8.238;2023-06-14T07:00:28;2.53;;;1.52;;
66212;SDS011;53015;50.046;8.238;2023-06-14T07:02:53;1.92;;;1.70;;
66212;SDS011;53015;50.046;8.238;2023-06-14T07:05:20;2.15;;;1.88;;
66212;SDS011;53015;50.046;8.238;2023-06-14T07:07:46;3.40;;;1.50;;
66212;SDS011;53015;50.046;8.238;2023-06-14T07:10:11;3.25;;;1.50;;
66212;SDS011;53015;50.046;8.238;2023-06-14T07:12:37;5.07;;;1.30;;
66212;SDS011;53015;50.046;8.238;2023-06-14T07:15:02;1.70;;;1.23;;
66212;SDS011;53015;50.046;8.238;2023-06-14T07:17:28;1.85;;;1.30;;
66212;SDS011;53015;50.046;8.238;2023-06-14T07:19:54;2.25;;;1.50;;
66212;SDS011;53015;50.046;8.238;2023-06-14T07:22:21;2.95;;;1.40;;
66212;SDS011;53015;50.046;8.238;2023-06-14T07:24:46;1.52;;;1.35;;
66212;SDS011;53015;50.046;8.238;2023-06-14T07:27:12;1.80;;;1.42;;
66212;SDS011;53015;50.046;8.238;2023-06-14T07:29:37;1.42;;;1.15;;
66212;SDS011;53015;50.046;8.238;2023-06-14T07:32:03;1.42;;;1.33;;
66212;SDS011;53015;50.046;8.238;2023-06-14T07:34:29;1.55;;;1.27;;
66212;SDS011;53015;50.046;8.238;2023-06-14T07:36:54;2.33;;;1.20;;
66212;SDS011;53015;50.046;8.238;2023-06-14T07:39:21;1.20;;;1.10;;
66212;SDS011;53015;50.046;8.238;2023-06-14T07:41:47;2.75;;;1.30;;
66212;SDS011;53015;50.046;8.238;2023-06-14T07:44:12;3.20;;;1.48;;
66212;SDS011;53015;50.046;8.238;2023-06-14T07:46:38;3.67;;;1.30;;
66212;SDS011;53015;50.046;8.238;2023-06-14T07:49:03;1.48;;;1.25;;
66212;SDS011;53015;50.046;8.238;2023-06-14T07:51:29;2.13;;;1.15;;
66212;SDS011;53015;50.046;8.238;2023-06-14T07:53:54;1.52;;;1.17;;
66212;SDS011;53015;50.046;8.238;2023-06-14T07:56:21;3.28;;;1.40;;
66212;SDS011;53015;50.046;8.238;2023-06-14T07:58:47;1.85;;;1.20;;
66212;SDS011;53015;50.046;8.238;2023-06-14T08:01:12;2.05;;;1.30;;
66212;SDS011;53015;50.046;8.238;2023-06-14T08:03:38;1.35;;;1.20;;
66212;SDS011;53015;50.046;8.238;2023-06-14T08:06:03;1.35;;;1.00;;
66212;SDS011;53015;50.046;8.238;2023-06-14T08:08:29;1.95;;;1.10;;
66212;SDS011;53015;50.046;8.238;2023-06-14T08:10:54;1.20;;;1.10;;
66212;SDS011;53015;50.046;8.238;2023-06-14T08:13:21;2.33;;;1.13;;
66212;SDS011;53015;50.046;8.238;2023-06-14T08:15:47;1.25;;;1.10;;
66212;SDS011;53015;50.046;8.238;2023-06-14T08:18:12;2.45;;;1.30;;
66212;SDS011;53015;50.046;8.238;2023-06-14T08:20:38;1.77;;;1.05;;
66212;SDS011;53015;50.046;8.238;2023-06-14T08:23:03;5.22;;;1.30;;
66212;SDS011;53015;50.046;8.238;2023-06-14T08:25:29;2.25;;;1.40;;
66212;SDS011;53015;50.046;8.238;2023-06-14T08:27:54;1.20;;;1.10;;
66212;SDS011;53015;50.046;8.238;2023-06-14T08:30:21;2.65;;;1.23;;
66212;SDS011;53015;50.046;8.238;2023-06-14T08:32:47;1.73;;;1.10;;
66212;SDS011;53015;50.046;8.238;2023-06-14T08:35:12;3.28;;;1.30;;
66212;SDS011;53015;50.046;8.238;2023-06-14T08:37:38;2.08;;;1.27;;
66212;SDS011;53015;50.046;8.238;2023-06-14T08:40:04;3.83;;;1.20;;
66212;SDS011;53015;50.046;8.238;2023-06-14T08:42:37;1.90;;;1.23;;
66212;SDS011;53015;50.046;8.238;2023-06-14T08:45:03;1.33;;;1.10;;
66212;SDS011;53015;50.046;8.238;2023-06-14T08:47:31;3.05;;;0.90;;
66212;SDS011;53015;50.046;8.238;2023-06-14T08:49:57;3.92;;;1.20;;
66212;SDS011;53015;50.046;8.238;2023-06-14T08:52:23;1.63;;;1.25;;
66212;SDS011;53015;50.046;8.238;2023-06-14T08:54:50;2.75;;;1.08;;
66212;SDS011;53015;50.046;8.238;2023-06-14T08:57:16;3.17;;;1.05;;
66212;SDS011;53015;50.046;8.238;2023-06-14T08:59:45;1.75;;;1.20;;
66212;SDS011;53015;50.046;8.238;2023-06-14T09:02:11;1.50;;;1.10;;
66212;SDS011;53015;50.046;8.238;2023-06-14T09:04:39;0.80;;;0.80;;
66212;SDS011;53015;50.046;8.238;2023-06-14T09:07:05;2.10;;;1.33;;
66212;SDS011;53015;50.046;8.238;2023-06-14T09:09:30;1.70;;;1.05;;
66212;SDS011;53015;50.046;8.238;2023-06-14T09:11:56;1.30;;;1.00;;
66212;SDS011;53015;50.046;8.238;2023-06-14T09:14:23;1.35;;;1.08;;
66212;SDS011;53015;50.046;8.238;2023-06-14T09:16:52;1.20;;;0.90;;
66212;SDS011;53015;50.046;8.238;2023-06-14T09:19:20;1.52;;;0.88;;
66212;SDS011;53015;50.046;8.238;2023-06-14T09:21:48;1.42;;;1.33;;
66212;SDS011;53015;50.046;8.238;2023-06-14T09:24:14;2.90;;;0.98;;
66212;SDS011;53015;50.046;8.238;2023-06-14T09:26:40;1.17;;;0.93;;
66212;SDS011;53015;50.046;8.238;2023-06-14T09:29:05;1.00;;;0.90;;
66212;SDS011;53015;50.046;8.238;2023-06-14T09:31:30;0.90;;;0.90;;
66212;SDS011;53015;50.046;8.238;2023-06-14T09:33:56;1.55;;;0.98;;
66212;SDS011;53015;50.046;8.238;2023-06-14T09:36:22;0.80;;;0.80;;
66212;SDS011;53015;50.046;8.238;2023-06-14T09:38:52;1.20;;;0.93;;
66212;SDS011;53015;50.046;8.238;2023-06-14T09:41:18;0.80;;;0.77;;
66212;SDS011;53015;50.046;8.238;2023-06-14T09:43:44;1.38;;;0.70;;
66212;SDS011;53015;50.046;8.238;2023-06-14T09:46:10;0.90;;;0.90;;
66212;SDS011;53015;50.046;8.238;2023-06-14T09:48:36;4.78;;;0.85;;
66212;SDS011;53015;50.046;8.238;2023-06-14T09:51:02;0.68;;;0.68;;
66212;SDS011;53015;50.046;8.238;2023-06-14T09:53:29;1.50;;;0.80;;
66212;SDS011;53015;50.046;8.238;2023-06-14T09:55:57;2.25;;;1.17;;
66212;SDS011;53015;50.046;8.238;2023-06-14T09:58:23;0.85;;;0.80;;
66212;SDS011;53015;50.046;8.238;2023-06-14T10:00:51;1.55;;;0.70;;
66212;SDS011;53015;50.046;8.238;2023-06-14T10:03:19;1.27;;;0.90;;
66212;SDS011;53015;50.046;8.238;2023-06-14T10:05:53;1.10;;;0.85;;
66212;SDS011;53015;50.046;8.238;2023-06-14T10:08:23;3.00;;;0.70;;
66212;SDS011;53015;50.046;8.238;2023-06-14T10:10:50;0.80;;;0.80;;
66212;SDS011;53015;50.046;8.238;2023-06-14T10:13:17;0.90;;;0.85;;
66212;SDS011;53015;50.046;8.238;2023-06-14T10:15:46;0.82;;;0.82;;
66212;SDS011;53015;50.046;8.238;2023-06-14T10:18:22;1.00;;;0.90;;
66212;SDS011;53015;50.046;8.238;2023-06-14T10:20:55;1.35;;;0.88;;
66212;SDS011;53015;50.046;8.238;2023-06-14T10:23:27;3.58;;;0.93;;
66212;SDS011;53015;50.046;8.238;2023-06-14T10:25:56;2.30;;;1.00;;
66212;SDS011;53015;50.046;8.238;2023-06-14T10:28:23;1.48;;;0.90;;
66212;SDS011;53015;50.046;8.238;2023-06-14T10:31:01;0.90;;;0.90;;
66212;SDS011;53015;50.046;8.238;2023-06-14T10:33:31;2.03;;;0.93;;
66212;SDS011;53015;50.046;8.238;2023-06-14T10:38:56;1.27;;;0.90;;
66212;SDS011;53015;50.046;8.238;2023-06-14T10:43:49;0.80;;;0.80;;
66212;SDS011;53015;50.046;8.238;2023-06-14T10:46:15;1.13;;;0.65;;
66212;SDS011;53015;50.046;8.238;2023-06-14T10:48:42;1.40;;;1.00;;
66212;SDS011;53015;50.046;8.238;2023-06-14T10:51:13;0.70;;;0.70;;
66212;SDS011;53015;50.046;8.238;2023-06-14T10:53:40;2.08;;;0.90;;
66212;SDS011;53015;50.046;8.238;2023-06-14T10:56:07;0.80;;;0.80;;
66212;SDS011;53015;50.046;8.238;2023-06-14T10:58:33;2.00;;;1.27;;
66212;SDS011;53015;50.046;8.238;2023-06-14T11:01:00;3.38;;;0.80;;
66212;SDS011;53015;50.046;8.238;2023-06-14T11:06:16;0.98;;;0.70;;
66212;SDS011;53015;50.046;8.238;2023-06-14T11:08:53;0.80;;;0.80;;
66212;SDS011;53015;50.046;8.238;2023-06-14T11:11:41;1.95;;;0.88;;
66212;SDS011;53015;50.046;8.238;2023-06-14T11:14:07;1.60;;;0.98;;
66212;SDS011;53015;50.046;8.238;2023-06-14T11:16:34;1.58;;;0.70;;
66212;SDS011;53015;50.046;8.238;2023-06-14T11:19:00;4.78;;;1.00;;
66212;SDS011;53015;50.046;8.238;2023-06-14T11:21:26;1.10;;;1.00;;
66212;SDS011;53015;50.046;8.238;2023-06-14T11:23:52;1.10;;;1.00;;
66212;SDS011;53015;50.046;8.238;2023-06-14T11:26:24;8.75;;;2.08;;
66212;SDS011;53015;50.046;8.238;2023-06-14T11:28:49;1.85;;;1.10;;
66212;SDS011;53015;50.046;8.238;2023-06-14T11:31:20;4.65;;;1.17;;
66212;SDS011;53015;50.046;8.238;2023-06-14T11:33:50;2.47;;;1.00;;
66212;SDS011;53015;50.046;8.238;2023-06-14T11:36:16;0.90;;;0.90;;
66212;SDS011;53015;50.046;8.238;2023-06-14T11:38:41;0.90;;;0.90;;
66212;SDS011;53015;50.046;8.238;2023-06-14T11:41:07;1.35;;;0.90;;
66212;SDS011;53015;50.046;8.238;2023-06-14T11:43:32;1.65;;;0.80;;
66212;SDS011;53015;50.046;8.238;2023-06-14T11:45:58;0.90;;;0.85;;
66212;SDS011;53015;50.046;8.238;2023-06-14T11:48:23;1.05;;;0.90;;
66212;SDS011;53015;50.046;8.238;2023-06-14T11:51:01;1.45;;;1.08;;
66212;SDS011;53015;50.046;8.238;2023-06-14T11:53:27;1.73;;;1.02;;
66212;SDS011;53015;50.046;8.238;2023-06-14T11:55:52;0.93;;;0.93;;
66212;SDS011;53015;50.046;8.238;2023-06-14T11:58:18;1.33;;;1.20;;
66212;SDS011;53015;50.046;8.238;2023-06-14T12:00:43;1.33;;;1.08;;
66212;SDS011;53015;50.046;8.238;2023-06-14T12:03:09;5.15;;;1.10;;
66212;SDS011;53015;50.046;8.238;2023-06-14T12:05:36;2.47;;;1.20;;
66212;SDS011;53015;50.046;8.238;2023-06-14T12:08:03;1.45;;;1.05;;
66212;SDS011;53015;50.046;8.238;2023-06-14T12:10:29;1.92;;;0.90;;
66212;SDS011;53015;50.046;8.238;2023-06-14T12:12:56;1.25;;;1.08;;
66212;SDS011;53015;50.046;8.238;2023-06-14T12:15:22;1.70;;;1.10;;
66212;SDS011;53015;50.046;8.238;2023-06-14T12:17:48;1.10;;;0.90;;
66212;SDS011;53015;50.046;8.238;2023-06-14T12:20:14;1.95;;;1.02;;
66212;SDS011;53015;50.046;8.238;2023-06-14T12:22:46;1.17;;;1.00;;
66212;SDS011;53015;50.046;8.238;2023-06-14T12:25:25;1.17;;;1.00;;
66212;SDS011;53015;50.046;8.238;2023-06-14T12:27:51;1.95;;;1.20;;
66212;SDS011;53015;50.046;8.238;2023-06-14T12:30:17;1.10;;;1.00;;
66212;SDS011;53015;50.046;8.238;2023-06-14T12:32:43;1.15;;;1.08;;
66212;SDS011;53015;50.046;8.238;2023-06-14T12:35:08;1.15;;;1.05;;
66212;SDS011;53015;50.046;8.238;2023-06-14T12:37:33;1.98;;;1.10;;
66212;SDS011;53015;50.046;8.238;2023-06-14T12:39:59;1.25;;;1.15;;
66212;SDS011;53015;50.046;8.238;2023-06-14T12:42:26;1.17;;;1.08;;
66212;SDS011;53015;50.046;8.238;2023-06-14T12:44:52;1.27;;;1.02;;
66212;SDS011;53015;50.046;8.238;2023-06-14T12:47:17;2.60;;;1.13;;
66212;SDS011;53015;50.046;8.238;2023-06-14T12:49:42;1.08;;;1.00;;
66212;SDS011;53015;50.046;8.238;2023-06-14T12:52:08;2.08;;;1.40;;
66212;SDS011;53015;50.046;8.238;2023-06-14T12:54:33;1.95;;;1.13;;
66212;SDS011;53015;50.046;8.238;2023-06-14T12:56:59;1.33;;;1.00;;
66212;SDS011;53015;50.046;8.238;2023-06-14T12:59:29;0.88;;;0.88;;
66212;SDS011;53015;50.046;8.238;2023-06-14T13:01:54;1.58;;;0.90;;
66212;SDS011;53015;50.046;8.238;2023-06-14T13:04:20;2.22;;;1.25;;
66212;SDS011;53015;50.046;8.238;2023-06-14T13:06:45;1.23;;;1.13;;
66212;SDS011;53015;50.046;8.238;2023-06-14T13:09:11;1.05;;;0.98;;
66212;SDS011;53015;50.046;8.238;2023-06-14T13:11:36;1.90;;;1.00;;
66212;SDS011;53015;50.046;8.238;2023-06-14T13:14:01;1.05;;;1.05;;
66212;SDS011;53015;50.046;8.238;2023-06-14T13:16:28;2.35;;;1.00;;
66212;SDS011;53015;50.046;8.238;2023-06-14T13:18:54;1.27;;;1.00;;
66212;SDS011;53015;50.046;8.238;2023-06-14T13:21:19;1.50;;;1.27;;
66212;SDS011;53015;50.046;8.238;2023-06-14T13:23:45;0.90;;;0.90;;
66212;SDS011;53015;50.046;8.238;2023-06-14T13:26:10;3.53;;;1.10;;
66212;SDS011;53015;50.046;8.238;2023-06-14T13:28:36;0.98;;;0.98;;
66212;SDS011;53015;50.046;8.238;2023-06-14T13:31:01;1.67;;;1.10;;
66212;SDS011;53015;50.046;8.238;2023-06-14T13:33:28;1.27;;;1.00;;
66212;SDS011;53015;50.046;8.238;2023-06-14T13:35:54;1.25;;;0.95;;
66212;SDS011;53015;50.046;8.238;2023-06-14T13:38:19;1.63;;;1.02;;
66212;SDS011;53015;50.046;8.238;2023-06-14T13:40:45;5.18;;;1.10;;
66212;SDS011;53015;50.046;8.238;2023-06-14T13:43:10;2.20;;;1.15;;
66212;SDS011;53015;50.046;8.238;2023-06-14T13:45:36;1.10;;;0.98;;
66212;SDS011;53015;50.046;8.238;2023-06-14T13:48:01;2.13;;;1.10;;
66212;SDS011;53015;50.046;8.238;2023-06-14T13:50:28;1.25;;;1.15;;
66212;SDS011;53015;50.046;8.238;2023-06-14T13:52:54;2.53;;;1.70;;
66212;SDS011;53015;50.046;8.238;2023-06-14T13:55:19;2.15;;;1.17;;
66212;SDS011;53015;50.046;8.238;2023-06-14T13:57:45;1.40;;;1.30;;
66212;SDS011;53015;50.046;8.238;2023-06-14T14:00:10;1.30;;;1.20;;
66212;SDS011;53015;50.046;8.238;2023-06-14T14:02:37;2.00;;;1.30;;
66212;SDS011;53015;50.046;8.238;2023-06-14T14:05:03;1.40;;;1.10;;
66212;SDS011;53015;50.046;8.238;2023-06-14T14:07:30;2.50;;;1.27;;
66212;SDS011;53015;50.046;8.238;2023-06-14T14:09:55;3.75;;;1.30;;
66212;SDS011;53015;50.046;8.238;2023-06-14T14:12:21;2.70;;;1.08;;
66212;SDS011;53015;50.046;8.238;2023-06-14T14:14:46;1.23;;;1.13;;
66212;SDS011;53015;50.046;8.238;2023-06-14T14:17:12;1.40;;;1.30;;
66212;SDS011;53015;50.046;8.238;2023-06-14T14:19:37;1.98;;;1.38;;
66212;SDS011;53015;50.046;8.238;2023-06-14T14:22:03;1.05;;;1.00;;
66212;SDS011;53015;50.046;8.238;2023-06-14T14:24:30;1.55;;;1.30;;
66212;SDS011;53015;50.046;8.238;2023-06-14T14:26:56;2.42;;;1.30;;
66212;SDS011;53015;50.046;8.238;2023-06-14T14:29:21;1.90;;;1.33;;
66212;SDS011;53015;50.046;8.238;2023-06-14T14:31:46;3.75;;;1.50;;
66212;SDS011;53015;50.046;8.238;2023-06-14T14:34:12;1.77;;;1.50;;
66212;SDS011;53015;50.046;8.238;2023-06-14T14:36:38;1.67;;;1.30;;
66212;SDS011;53015;50.046;8.238;2023-06-14T14:39:03;2.50;;;1.08;;
66212;SDS011;53015;50.046;8.238;2023-06-14T14:41:30;1.52;;;1.33;;
66212;SDS011;53015;50.046;8.238;2023-06-14T14:43:55;1.33;;;1.10;;
66212;SDS011;53015;50.046;8.238;2023-06-14T14:46:21;2.28;;;1.13;;
66212;SDS011;53015;50.046;8.238;2023-06-14T14:48:46;1.55;;;1.15;;
66212;SDS011;53015;50.046;8.238;2023-06-14T14:51:12;1.90;;;1.23;;